Time;durP1;ratioP1;P1;durP2;ratioP2;P2;SDS_P1;SDS_P2;PMS_P1;PMS_P2;Temp;Humidity;BMP_temperature;BMP_pressure;BME280_temperature;BME280_humidity;BME280_pressure;Samples;Min_cycle;Max_cycle;Signal;HPM_P1;HPM_P2
2022/04/18 00:02:20;;;;;;;16.83;11.05;;;10.50;85.50;;;;;;5053357;28;20108;-73
2022/04/18 00:04:46;;;;;;;12.10;10.90;;;10.50;85.20;;;;;;5062194;28;20464;-73
2022/04/18 00:07:11;;;;;;;13.80;11.38;;;10.50;86.00;;;;;;5061598;28;20041;-73
2022/04/18 00:09:37;;;;;;;15.93;11.93;;;10.50;86.50;;;;;;5061478;28;20044;-73
2022/04/18 00:12:03;;;;;;;11.35;9.55;;;10.40;86.20;;;;;;5061673;28;20060;-73
2022/04/18 00:14:30;;;;;;;12.05;10.63;;;10.40;86.30;;;;;;5056206;28;20044;-73
2022/04/18 00:16:56;;;;;;;12.63;10.93;;;10.40;86.40;;;;;;5063613;28;20059;-73
2022/04/18 00:19:22;;;;;;;13.18;10.52;;;10.40;86.30;;;;;;5063801;28;20021;-73
2022/04/18 00:21:47;;;;;;;14.90;11.07;;;10.30;86.60;;;;;;5061400;28;20051;-73
2022/04/18 00:24:14;;;;;;;12.40;10.75;;;10.30;86.50;;;;;;5064469;28;20063;-74
2022/04/18 00:26:40;;;;;;;14.00;10.38;;;10.30;86.70;;;;;;5067684;28;20021;-72
2022/04/18 00:29:06;;;;;;;16.33;10.70;;;10.30;86.90;;;;;;5063811;28;20032;-73
2022/04/18 00:31:32;;;;;;;14.32;10.07;;;10.20;87.00;;;;;;5064180;28;20105;-74
2022/04/18 00:33:57;;;;;;;12.75;11.32;;;10.20;87.30;;;;;;5058891;28;20476;-73
2022/04/18 00:36:23;;;;;;;15.80;11.60;;;10.20;87.40;;;;;;5057209;28;20033;-72
2022/04/18 00:38:49;;;;;;;14.07;10.45;;;10.10;87.60;;;;;;5059098;28;20021;-73
2022/04/18 00:41:14;;;;;;;13.48;10.57;;;10.10;88.20;;;;;;5062356;28;20024;-73
2022/04/18 00:43:48;;;;;;;12.98;10.93;;;10.10;88.20;;;;;;5063256;28;20028;-73
2022/04/18 00:46:16;;;;;;;15.35;10.10;;;10.10;88.50;;;;;;5060521;28;20476;-73
2022/04/18 00:48:42;;;;;;;12.57;10.35;;;10.00;89.10;;;;;;5056375;28;20071;-74
2022/04/18 00:51:11;;;;;;;12.90;11.00;;;10.00;89.30;;;;;;5059500;28;20107;-72
2022/04/18 00:53:38;;;;;;;14.63;11.20;;;10.00;89.50;;;;;;5055382;28;20032;-73
2022/04/18 00:56:09;;;;;;;18.55;11.07;;;9.90;89.60;;;;;;5061818;28;20024;-72
2022/04/18 00:58:36;;;;;;;;;;;10.00;89.60;;;;;;5063096;28;20025;-73
2022/04/18 01:01:02;;;;;;;13.52;10.27;;;9.90;89.30;;;;;;5057703;28;19908;-74
2022/04/18 01:03:30;;;;;;;13.60;11.07;;;9.90;88.90;;;;;;5061075;28;20536;-73
2022/04/18 01:06:00;;;;;;;13.32;10.68;;;9.80;89.30;;;;;;5064157;28;20108;-73
2022/04/18 01:08:28;;;;;;;12.20;10.45;;;9.80;89.90;;;;;;5059953;28;20668;-74
2022/04/18 01:10:53;;;;;;;16.02;11.68;;;10.30;90.20;;;;;;5065462;28;20025;-73
2022/04/18 01:13:19;;;;;;;11.50;9.93;;;9.80;90.00;;;;;;5059340;28;20043;-74
2022/04/18 01:15:57;;;;;;;11.75;10.07;;;9.70;89.60;;;;;;5066504;28;20043;-74
2022/04/18 01:18:23;;;;;;;13.02;10.10;;;9.70;90.10;;;;;;5062063;28;20040;-73
2022/04/18 01:20:49;;;;;;;15.07;10.93;;;9.60;90.30;;;;;;5060630;28;20021;-72
2022/04/18 01:23:16;;;;;;;13.95;10.00;;;9.60;90.10;;;;;;5061584;28;20029;-73
2022/04/18 01:31:11;;;;;;;12.93;10.27;;;9.50;90.50;;;;;;5066766;28;20078;-72
2022/04/18 01:33:37;;;;;;;19.77;11.02;;;9.50;90.60;;;;;;5059830;28;20033;-73
2022/04/18 01:36:02;;;;;;;12.85;9.15;;;9.50;90.60;;;;;;5066110;28;20415;-73
2022/04/18 01:38:28;;;;;;;14.85;9.73;;;9.40;90.70;;;;;;5062492;28;20033;-73
2022/04/18 01:40:54;;;;;;;14.05;10.35;;;9.30;90.80;;;;;;5064761;28;20512;-72
2022/04/18 01:43:19;;;;;;;12.43;9.90;;;9.30;91.00;;;;;;5063909;28;20028;-74
2022/04/18 01:45:45;;;;;;;12.70;9.82;;;9.30;91.20;;;;;;5058768;28;20534;-72
2022/04/18 01:48:11;;;;;;;10.45;8.95;;;9.30;91.20;;;;;;5068102;28;20058;-74
2022/04/18 01:50:37;;;;;;;11.35;9.32;;;9.20;91.30;;;;;;5058848;28;20090;-73
2022/04/18 01:53:03;;;;;;;13.10;10.45;;;9.20;91.20;;;;;;5057958;28;20411;-73
2022/04/18 01:55:29;;;;;;;11.40;9.00;;;9.20;91.20;;;;;;5058728;28;20559;-74
2022/04/18 01:57:54;;;;;;;10.98;9.68;;;9.10;91.40;;;;;;5060577;28;20280;-74
2022/04/18 02:00:20;;;;;;;10.38;9.30;;;9.10;91.70;;;;;;5057212;28;20052;-74
2022/04/18 02:02:45;;;;;;;12.20;9.55;;;9.00;91.90;;;;;;5061322;28;20017;-73
2022/04/18 02:05:11;;;;;;;10.50;9.40;;;9.00;92.10;;;;;;5060106;28;20025;-74
2022/04/18 02:07:36;;;;;;;10.00;9.00;;;9.00;92.30;;;;;;5055269;28;20036;-73
2022/04/18 02:10:03;;;;;;;10.30;8.50;;;8.90;92.50;;;;;;5059566;28;20047;-74
2022/04/18 02:12:30;;;;;;;10.55;9.43;;;8.90;92.60;;;;;;5059129;28;20028;-74
2022/04/18 02:14:55;;;;;;;8.40;7.60;;;8.90;92.60;;;;;;5056107;28;20097;-74
2022/04/18 02:17:21;;;;;;;12.35;8.57;;;8.80;92.80;;;;;;5060854;28;20547;-73
2022/04/18 02:19:49;;;;;;;14.10;8.82;;;8.80;92.90;;;;;;5060622;28;20610;-73
2022/04/18 02:22:15;;;;;;;10.20;8.02;;;8.80;93.10;;;;;;5062798;28;20159;-73
2022/04/18 02:24:41;;;;;;;11.57;8.75;;;8.80;92.90;;;;;;5065496;28;20449;-73
2022/04/18 02:27:06;;;;;;;14.07;8.45;;;8.80;93.10;;;;;;5060367;28;20070;-73
2022/04/18 02:29:33;;;;;;;11.18;7.95;;;8.80;93.30;;;;;;5061329;28;20025;-73
2022/04/18 02:34:43;;;;;;;10.63;8.73;;;8.70;93.40;;;;;;5062924;28;20052;-73
2022/04/18 02:37:08;;;;;;;8.43;7.40;;;8.70;93.50;;;;;;5062790;28;20496;-73
2022/04/18 02:39:34;;;;;;;9.77;8.15;;;8.70;93.70;;;;;;5072786;28;20075;-73
2022/04/18 02:42:00;;;;;;;8.88;6.97;;;8.60;93.70;;;;;;5063717;28;20024;-72
2022/04/18 02:44:25;;;;;;;9.65;8.10;;;8.60;93.60;;;;;;5063668;28;20024;-73
2022/04/18 02:46:51;;;;;;;12.90;7.57;;;8.70;93.60;;;;;;5068870;28;20028;-72
2022/04/18 02:49:16;;;;;;;7.45;6.75;;;8.60;93.60;;;;;;5069223;28;20031;-73
2022/04/18 02:51:42;;;;;;;11.40;6.68;;;8.60;93.60;;;;;;5063440;28;20029;-73
2022/04/18 02:54:07;;;;;;;9.57;7.35;;;8.60;93.70;;;;;;5064272;28;20028;-72
2022/04/18 02:56:33;;;;;;;9.23;6.05;;;8.60;93.70;;;;;;5064139;28;20033;-73
2022/04/18 02:58:58;;;;;;;9.25;6.53;;;8.50;93.70;;;;;;5068884;28;20029;-73
2022/04/18 03:01:24;;;;;;;8.63;6.63;;;8.50;93.90;;;;;;5064490;28;20017;-74
2022/04/18 03:03:50;;;;;;;7.85;6.18;;;8.50;93.90;;;;;;5060302;28;20119;-74
2022/04/18 03:06:15;;;;;;;6.72;6.03;;;8.40;94.00;;;;;;5057800;28;20159;-73
2022/04/18 03:08:41;;;;;;;8.40;5.78;;;8.40;94.00;;;;;;5064656;28;20629;-74
2022/04/18 03:11:07;;;;;;;6.22;5.32;;;8.40;94.10;;;;;;5063685;28;20017;-73
2022/04/18 03:13:34;;;;;;;6.25;5.65;;;8.40;94.40;;;;;;5065819;28;20032;-73
2022/04/18 03:16:00;;;;;;;8.95;6.35;;;8.30;94.40;;;;;;5061627;28;20020;-73
2022/04/18 03:18:26;;;;;;;6.10;5.50;;;8.30;94.40;;;;;;5064886;28;20153;-73
2022/04/18 03:20:52;;;;;;;6.95;5.20;;;8.30;94.50;;;;;;5068812;28;20453;-73
2022/04/18 03:23:17;;;;;;;8.13;6.45;;;8.30;94.70;;;;;;5064593;28;20081;-73
2022/04/18 03:25:43;;;;;;;7.72;5.65;;;8.20;94.70;;;;;;5060867;28;20025;-73
2022/04/18 03:28:09;;;;;;;6.25;5.68;;;8.20;95.10;;;;;;5063431;28;20116;-73
2022/04/18 03:30:35;;;;;;;6.82;6.07;;;8.20;95.20;;;;;;5064775;28;20028;-72
2022/04/18 03:33:00;;;;;;;7.78;6.15;;;9.00;95.50;;;;;;5060675;28;20032;-72
2022/04/18 03:35:27;;;;;;;8.52;5.80;;;8.20;95.30;;;;;;5064384;28;20730;-73
2022/04/18 03:40:36;;;;;;;8.10;5.30;;;8.20;95.50;;;;;;5065349;28;20090;-74
2022/04/18 03:43:03;;;;;;;6.70;5.40;;;8.20;95.40;;;;;;5059766;28;20021;-72
2022/04/18 03:45:28;;;;;;;6.45;4.90;;;8.20;95.50;;;;;;5061322;28;20025;-74
2022/04/18 03:47:54;;;;;;;6.43;5.80;;;8.10;95.70;;;;;;5065949;28;20503;-73
2022/04/18 03:50:19;;;;;;;5.82;5.18;;;8.10;95.80;;;;;;5065467;28;20033;-73
2022/04/18 03:52:45;;;;;;;6.03;4.80;;;8.10;95.80;;;;;;5065081;28;20040;-73
2022/04/18 03:55:11;;;;;;;6.75;4.82;;;8.00;95.70;;;;;;5064685;28;20031;-74
2022/04/18 03:57:37;;;;;;;5.55;4.47;;;8.00;95.50;;;;;;5064288;28;20105;-73
2022/04/18 04:00:04;;;;;;;7.80;6.05;;;8.00;95.70;;;;;;5064608;28;20468;-73
2022/04/18 04:02:30;;;;;;;5.70;5.10;;;7.90;95.70;;;;;;5061892;28;20120;-73
2022/04/18 04:04:55;;;;;;;7.20;4.43;;;7.90;95.90;;;;;;5060371;28;20052;-73
2022/04/18 04:07:21;;;;;;;5.18;4.68;;;7.80;96.10;;;;;;5066322;28;20051;-73
2022/04/18 04:09:54;;;;;;;6.40;4.18;;;7.80;96.40;;;;;;5063655;28;20053;-75
2022/04/18 04:12:24;;;;;;;6.70;5.47;;;7.80;96.50;;;;;;5059889;28;20132;-74
2022/04/18 04:14:54;;;;;;;4.47;4.07;;;7.70;96.60;;;;;;5057536;28;20432;-73
2022/04/18 04:17:21;;;;;;;6.78;4.70;;;7.70;96.80;;;;;;5062579;28;20040;-73
2022/04/18 04:19:47;;;;;;;4.65;4.20;;;7.70;96.90;;;;;;5057126;28;20066;-72
2022/04/18 04:22:12;;;;;;;8.60;4.85;;;7.70;96.80;;;;;;5066665;28;20392;-74
2022/04/18 04:24:38;;;;;;;5.93;3.70;;;7.70;96.80;;;;;;5068326;28;20021;-73
2022/04/18 04:27:04;;;;;;;5.20;4.43;;;7.70;96.70;;;;;;5058009;28;20028;-73
2022/04/18 04:29:29;;;;;;;5.38;4.35;;;7.70;96.60;;;;;;5066943;28;20060;-73
2022/04/18 04:31:55;;;;;;;9.82;3.83;;;7.60;96.40;;;;;;5061880;28;20114;-72
2022/04/18 04:34:20;;;;;;;7.68;4.10;;;7.70;96.40;;;;;;5061960;28;20033;-73
2022/04/18 04:36:46;;;;;;;4.40;4.00;;;7.60;96.30;;;;;;5057907;28;20094;-72
2022/04/18 04:39:11;;;;;;;5.20;4.22;;;7.60;96.10;;;;;;5057625;28;20021;-73
2022/04/18 04:41:38;;;;;;;5.90;4.07;;;7.70;96.10;;;;;;5060813;28;20025;-73
2022/04/18 04:44:07;;;;;;;5.57;4.32;;;7.70;96.10;;;;;;5065080;28;20043;-73
2022/04/18 04:46:34;;;;;;;4.10;3.53;;;7.70;95.90;;;;;;5061045;28;20059;-74
2022/04/18 04:49:00;;;;;;;5.45;3.70;;;7.70;95.80;;;;;;5062777;28;20020;-73
2022/04/18 04:51:25;;;;;;;5.57;3.60;;;7.70;95.70;;;;;;5065936;28;20038;-72
2022/04/18 04:53:52;;;;;;;4.72;3.95;;;7.70;95.90;;;;;;5061944;28;20107;-74
2022/04/18 04:56:18;;;;;;;5.07;3.42;;;7.70;95.90;;;;;;5068349;28;20103;-73
2022/04/18 04:58:43;;;;;;;4.05;3.65;;;7.70;95.90;;;;;;5053927;28;20441;-74
2022/04/18 05:01:09;;;;;;;5.95;4.05;;;7.70;96.10;;;;;;5065391;28;20020;-74
2022/04/18 05:03:37;;;;;;;6.07;3.35;;;7.80;95.90;;;;;;5066478;28;20692;-73
2022/04/18 05:06:03;;;;;;;8.52;4.72;;;7.80;96.00;;;;;;5063568;28;20025;-73
2022/04/18 05:08:28;;;;;;;3.95;3.58;;;7.80;96.10;;;;;;5065934;28;20532;-73
2022/04/18 05:10:55;;;;;;;4.82;3.50;;;7.80;95.80;;;;;;5058007;28;20029;-73
2022/04/18 05:13:22;;;;;;;4.78;3.75;;;7.90;95.80;;;;;;5057371;28;20109;-74
2022/04/18 05:15:48;;;;;;;3.47;3.17;;;7.80;95.80;;;;;;5060384;28;20086;-74
2022/04/18 05:18:14;;;;;;;5.35;3.67;;;7.90;96.10;;;;;;5060415;28;20036;-73
2022/04/18 05:20:39;;;;;;;3.85;3.47;;;7.90;96.20;;;;;;5058548;28;20511;-74
2022/04/18 05:23:05;;;;;;;3.90;3.50;;;8.00;96.20;;;;;;5060161;28;20040;-73
2022/04/18 05:25:31;;;;;;;6.30;3.58;;;8.00;96.00;;;;;;5055913;28;20524;-74
2022/04/18 05:27:57;;;;;;;4.18;3.60;;;8.10;95.80;;;;;;5055730;28;20025;-73
2022/04/18 05:30:22;;;;;;;5.40;3.70;;;8.20;95.60;;;;;;5059165;28;20029;-74
2022/04/18 05:32:48;;;;;;;7.22;3.85;;;8.20;95.80;;;;;;5062309;28;20028;-74
2022/04/18 05:35:13;;;;;;;4.70;4.07;;;8.30;95.50;;;;;;5055628;28;20380;-72
2022/04/18 05:37:40;;;;;;;8.68;4.30;;;8.40;95.60;;;;;;5062348;28;20039;-74
2022/04/18 05:40:06;;;;;;;7.07;3.67;;;8.40;95.40;;;;;;5053429;28;20013;-73
2022/04/18 05:42:31;;;;;;;5.18;3.78;;;8.50;95.00;;;;;;5053249;28;20024;-73
2022/04/18 05:44:57;;;;;;;4.82;3.67;;;8.60;94.80;;;;;;5054446;28;20358;-73
2022/04/18 05:47:23;;;;;;;8.38;4.10;;;8.60;94.80;;;;;;5063360;28;20036;-73
2022/04/18 05:49:48;;;;;;;10.43;4.35;;;8.70;94.70;;;;;;5053348;28;20380;-73
2022/04/18 05:52:15;;;;;;;6.03;4.00;;;8.80;94.50;;;;;;5052653;28;20021;-72
2022/04/18 05:54:41;;;;;;;5.80;3.35;;;8.90;94.40;;;;;;5054881;28;20037;-74
2022/04/18 05:57:06;;;;;;;4.32;3.63;;;8.90;94.30;;;;;;5052912;28;20492;-73
2022/04/18 05:59:32;;;;;;;6.53;4.00;;;9.00;93.80;;;;;;5055997;28;20039;-73
2022/04/18 06:01:58;;;;;;;6.95;3.50;;;9.10;93.60;;;;;;5055265;28;20488;-74
2022/04/18 06:04:23;;;;;;;4.45;4.05;;;9.10;93.60;;;;;;5050503;28;20017;-74
2022/04/18 06:06:49;;;;;;;4.45;3.40;;;9.30;93.60;;;;;;5057670;28;20099;-72
2022/04/18 06:09:14;;;;;;;4.60;3.42;;;9.30;93.50;;;;;;5059396;28;20059;-73
2022/04/18 06:11:40;;;;;;;7.72;3.70;;;9.30;93.50;;;;;;5062091;28;20040;-73
2022/04/18 06:14:07;;;;;;;5.57;3.63;;;9.40;93.20;;;;;;5057364;28;20144;-73
2022/04/18 06:16:33;;;;;;;4.63;3.92;;;9.50;93.30;;;;;;5059625;28;20017;-73
2022/04/18 06:18:58;;;;;;;3.38;3.13;;;9.50;93.30;;;;;;5060580;28;20032;-74
2022/04/18 06:21:24;;;;;;;5.45;3.90;;;9.60;93.40;;;;;;5057665;28;20009;-73
2022/04/18 06:23:49;;;;;;;5.03;3.80;;;9.70;93.10;;;;;;5059160;28;20048;-73
2022/04/18 06:26:15;;;;;;;9.55;4.00;;;9.70;93.30;;;;;;5058060;28;20029;-73
2022/04/18 06:28:40;;;;;;;7.95;3.65;;;10.80;93.70;;;;;;5056392;28;20017;-72
2022/04/18 06:31:06;;;;;;;3.90;3.47;;;9.80;93.70;;;;;;5055683;28;20037;-74
2022/04/18 06:33:34;;;;;;;4.35;3.83;;;9.80;94.00;;;;;;5055647;28;20021;-73
2022/04/18 06:36:02;;;;;;;4.95;4.00;;;9.90;94.30;;;;;;5064251;28;20024;-73
2022/04/18 06:38:28;;;;;;;5.25;3.60;;;9.90;94.60;;;;;;5071877;28;20040;-73
2022/04/18 06:40:57;;;;;;;4.07;3.65;;;10.00;94.40;;;;;;5070065;28;20020;-74
2022/04/18 06:43:22;;;;;;;5.25;3.58;;;10.10;94.50;;;;;;5070709;28;20472;-73
2022/04/18 06:45:48;;;;;;;6.10;3.28;;;10.10;94.40;;;;;;5071284;28;20070;-74
2022/04/18 06:48:14;;;;;;;4.47;4.07;;;10.20;94.50;;;;;;5069748;28;20082;-73
2022/04/18 06:50:40;;;;;;;5.47;3.75;;;10.30;94.30;;;;;;5072729;28;20082;-74
2022/04/18 06:53:08;;;;;;;4.38;3.40;;;10.40;94.40;;;;;;5072536;28;20045;-73
2022/04/18 06:58:19;;;;;;;4.88;3.75;;;10.50;94.10;;;;;;5067160;28;20075;-74
2022/04/18 07:00:44;;;;;;;6.72;4.22;;;10.60;94.10;;;;;;5071943;28;20055;-73
2022/04/18 07:03:10;;;;;;;5.75;4.43;;;10.60;94.20;;;;;;5072610;28;20364;-73
2022/04/18 07:05:36;;;;;;;4.18;3.78;;;10.70;94.20;;;;;;5072267;28;20029;-74
2022/04/18 07:08:01;;;;;;;4.20;3.60;;;10.80;94.20;;;;;;5071909;28;20049;-73
2022/04/18 07:10:27;;;;;;;4.93;4.00;;;10.80;94.00;;;;;;5073862;28;20114;-74
2022/04/18 07:12:55;;;;;;;8.05;4.07;;;10.80;94.10;;;;;;5074252;28;20442;-72
2022/04/18 07:15:21;;;;;;;3.60;3.30;;;10.90;94.20;;;;;;5071978;28;20029;-74
2022/04/18 07:17:46;;;;;;;3.42;3.13;;;11.00;93.60;;;;;;5072853;28;20109;-73
2022/04/18 07:20:12;;;;;;;4.18;3.63;;;11.10;93.40;;;;;;5071883;28;20053;-72
2022/04/18 07:22:41;;;;;;;3.40;3.10;;;11.10;93.30;;;;;;5071360;28;20052;-72
2022/04/18 07:25:08;;;;;;;5.97;3.45;;;11.30;92.90;;;;;;5071989;28;20427;-74
2022/04/18 07:27:36;;;;;;;4.18;3.40;;;11.30;92.60;;;;;;5072764;28;20036;-74
2022/04/18 07:30:02;;;;;;;4.82;3.25;;;11.40;92.40;;;;;;5072680;28;20361;-70
2022/04/18 07:32:28;;;;;;;6.22;3.78;;;11.50;92.30;;;;;;5070869;28;20058;-71
2022/04/18 07:34:54;;;;;;;3.75;3.50;;;11.60;92.20;;;;;;5070698;28;20102;-71
2022/04/18 07:37:20;;;;;;;5.85;3.33;;;11.60;92.00;;;;;;5070850;28;20032;-70
2022/04/18 07:39:46;;;;;;;5.18;3.58;;;11.80;91.80;;;;;;5072199;28;20028;-71
2022/04/18 07:42:12;;;;;;;5.13;3.30;;;11.90;91.50;;;;;;5071352;28;20024;-71
2022/04/18 07:44:37;;;;;;;3.58;3.28;;;12.00;91.50;;;;;;5072073;28;20037;-72
2022/04/18 07:47:04;;;;;;;3.90;3.50;;;12.10;91.10;;;;;;5072053;28;20399;-71
2022/04/18 07:49:29;;;;;;;6.72;3.15;;;12.30;91.60;;;;;;5070457;28;20028;-70
2022/04/18 07:51:55;;;;;;;3.83;3.22;;;12.40;91.20;;;;;;5071956;28;20036;-71
2022/04/18 07:54:23;;;;;;;6.30;3.05;;;12.50;90.70;;;;;;5068385;28;20905;-70
2022/04/18 07:56:49;;;;;;;8.75;3.83;;;12.60;90.70;;;;;;5070137;28;20047;-71
2022/04/18 07:59:14;;;;;;;4.97;3.47;;;12.70;90.90;;;;;;5071772;28;20024;-71
2022/04/18 08:01:40;;;;;;;5.18;3.30;;;12.80;91.20;;;;;;5071883;28;20048;-71
2022/04/18 08:04:06;;;;;;;3.90;3.60;;;12.90;91.30;;;;;;5071014;28;20037;-71
2022/04/18 08:06:32;;;;;;;3.65;3.35;;;13.00;91.30;;;;;;5071653;28;20166;-71
2022/04/18 08:08:59;;;;;;;3.15;2.85;;;13.10;91.10;;;;;;5071485;28;20057;-70
2022/04/18 08:11:25;;;;;;;4.43;3.15;;;13.30;90.40;;;;;;5070834;28;20044;-70
2022/04/18 08:13:51;;;;;;;3.40;3.10;;;13.40;90.00;;;;;;5071511;28;20074;-70
2022/04/18 08:16:17;;;;;;;4.43;3.47;;;13.50;89.40;;;;;;5071417;28;20024;-70
2022/04/18 08:18:47;;;;;;;4.82;3.15;;;13.70;89.00;;;;;;5070410;28;20093;-71
2022/04/18 08:21:15;;;;;;;3.60;2.85;;;13.80;88.00;;;;;;5071418;28;20469;-70
2022/04/18 08:23:42;;;;;;;3.00;2.80;;;13.90;85.00;;;;;;5068779;28;20032;-72
2022/04/18 08:26:07;;;;;;;3.30;3.00;;;14.00;85.10;;;;;;5070547;28;20399;-72
2022/04/18 08:28:33;;;;;;;3.53;3.22;;;14.00;85.50;;;;;;5071443;28;20077;-73
2022/04/18 08:31:02;;;;;;;4.45;3.05;;;14.10;85.10;;;;;;5070244;28;20024;-71
2022/04/18 08:33:29;;;;;;;3.47;3.00;;;14.20;84.40;;;;;;5069671;28;20028;-70
2022/04/18 08:35:56;;;;;;;3.38;3.17;;;14.30;84.80;;;;;;5071204;28;20485;-71
2022/04/18 08:38:22;;;;;;;3.83;3.08;;;14.30;84.30;;;;;;5070200;28;20153;-71
2022/04/18 08:40:54;;;;;;;3.60;3.30;;;14.40;83.70;;;;;;5071151;28;20066;-71
2022/04/18 08:43:20;;;;;;;2.97;2.65;;;14.50;83.80;;;;;;5071144;28;20063;-71
2022/04/18 08:45:46;;;;;;;3.00;2.80;;;14.50;83.50;;;;;;5070071;28;20031;-70
2022/04/18 08:53:40;;;;;;;8.27;3.53;;;14.60;82.60;;;;;;5062994;28;20082;-71
2022/04/18 08:56:06;;;;;;;3.95;3.03;;;14.70;82.90;;;;;;5070398;28;20032;-72
2022/04/18 08:58:32;;;;;;;3.10;2.80;;;14.70;83.70;;;;;;5070575;28;20075;-71
2022/04/18 09:00:59;;;;;;;3.60;3.30;;;14.70;82.80;;;;;;5064723;28;20484;-70
2022/04/18 09:03:25;;;;;;;5.97;3.83;;;14.80;82.30;;;;;;5067237;28;20032;-70
2022/04/18 09:06:07;;;;;;;4.18;3.13;;;14.70;81.30;;;;;;5069801;28;20028;-71
2022/04/18 09:08:53;;;;;;;4.75;2.67;;;14.80;80.80;;;;;;5069458;28;20518;-71
2022/04/18 09:11:31;;;;;;;3.22;2.92;;;14.90;81.00;;;;;;5065362;28;20046;-71
2022/04/18 09:14:09;;;;;;;2.35;2.15;;;15.00;81.20;;;;;;5059136;28;20496;-71
2022/04/18 09:16:36;;;;;;;3.50;2.47;;;15.00;81.50;;;;;;5058346;28;20024;-70
2022/04/18 09:19:10;;;;;;;3.88;2.83;;;15.00;80.60;;;;;;5061775;28;20431;-70
2022/04/18 09:22:01;;;;;;;2.67;2.47;;;15.00;79.30;;;;;;5059580;28;20021;-70
2022/04/18 09:24:32;;;;;;;4.00;2.55;;;15.10;79.40;;;;;;5062638;28;20109;-70
2022/04/18 09:27:26;;;;;;;2.85;2.65;;;15.10;78.60;;;;;;5058488;28;20050;-71
2022/04/18 09:30:09;;;;;;;2.88;2.67;;;15.20;78.90;;;;;;5052627;28;20119;-71
2022/04/18 09:32:35;;;;;;;2.60;2.40;;;15.30;78.40;;;;;;5056805;28;20133;-71
2022/04/18 09:35:05;;;;;;;2.88;2.55;;;15.40;78.10;;;;;;5063263;28;20048;-71
2022/04/18 09:37:31;;;;;;;5.50;2.42;;;15.50;74.50;;;;;;5067821;28;20498;-73
2022/04/18 09:39:57;;;;;;;4.75;2.35;;;15.60;73.30;;;;;;5062452;28;20040;-71
2022/04/18 09:42:27;;;;;;;2.45;2.20;;;15.60;73.90;;;;;;5060003;28;20480;-71
2022/04/18 09:44:54;;;;;;;2.42;2.22;;;15.70;73.40;;;;;;5056480;28;20455;-70
2022/04/18 09:47:21;;;;;;;2.15;2.00;;;15.80;74.30;;;;;;5066406;28;20128;-72
2022/04/18 09:49:48;;;;;;;12.13;2.72;;;15.90;72.40;;;;;;5056729;28;20025;-72
2022/04/18 09:52:18;;;;;;;2.47;2.13;;;15.90;73.20;;;;;;5063431;28;20565;-71
2022/04/18 09:54:44;;;;;;;;;;;15.90;72.30;;;;;;5055771;28;20029;-71
2022/04/18 09:57:10;;;;;;;2.78;2.40;;;16.00;72.10;;;;;;5064827;28;19916;-71
2022/04/18 09:59:38;;;;;;;3.72;2.30;;;16.00;71.40;;;;;;5056867;28;20037;-72
2022/04/18 10:02:03;;;;;;;2.53;2.30;;;16.00;71.10;;;;;;5062939;28;20037;-72
2022/04/18 10:04:29;;;;;;;6.63;2.42;;;16.10;71.30;;;;;;5063437;28;20074;-72
2022/04/18 10:06:57;;;;;;;2.05;1.88;;;16.10;72.30;;;;;;5065476;28;20016;-71
2022/04/18 10:09:24;;;;;;;2.67;2.47;;;16.20;72.20;;;;;;5064754;28;20048;-72
2022/04/18 10:11:51;;;;;;;4.38;2.40;;;16.30;71.00;;;;;;5061111;28;20021;-71
2022/04/18 10:14:17;;;;;;;2.50;2.30;;;16.40;70.60;;;;;;5066060;28;20020;-71
2022/04/18 10:16:43;;;;;;;3.15;2.30;;;16.60;71.10;;;;;;5056374;28;20037;-71
2022/04/18 10:19:57;;;;;;;3.40;2.55;;;16.60;71.40;;;;;;5066130;28;20396;-71
2022/04/18 10:22:31;;;;;;;3.03;2.72;;;16.80;71.60;;;;;;5058105;28;20035;-72
2022/04/18 10:25:00;;;;;;;4.65;2.78;;;16.80;70.60;;;;;;5060841;28;20025;-71
2022/04/18 10:27:41;;;;;;;3.95;2.67;;;17.00;70.50;;;;;;5059381;28;20396;-70
2022/04/18 10:30:07;;;;;;;3.63;2.65;;;17.00;71.00;;;;;;5065683;28;20070;-71
2022/04/18 10:32:37;;;;;;;2.80;2.10;;;17.10;70.60;;;;;;5054531;28;20092;-71
2022/04/18 10:35:03;;;;;;;2.80;2.33;;;17.10;69.80;;;;;;5066528;28;20021;-72
2022/04/18 10:37:30;;;;;;;2.90;2.70;;;17.30;69.60;;;;;;5058006;28;20102;-71
2022/04/18 10:40:09;;;;;;;3.22;2.60;;;17.40;69.50;;;;;;5060100;28;20028;-72
2022/04/18 10:42:37;;;;;;;2.78;2.25;;;17.40;69.90;;;;;;5056703;28;20048;-71
2022/04/18 10:45:08;;;;;;;4.10;2.90;;;17.50;68.60;;;;;;5055801;28;20016;-71
2022/04/18 10:47:56;;;;;;;2.85;2.40;;;17.60;67.30;;;;;;5058161;28;20028;-71
2022/04/18 10:50:25;;;;;;;2.95;2.30;;;17.60;68.10;;;;;;5054429;28;20404;-70
2022/04/18 10:53:09;;;;;;;2.90;2.70;;;17.60;68.00;;;;;;5053333;28;20535;-70
2022/04/18 10:55:36;;;;;;;5.75;2.58;;;17.60;67.00;;;;;;5055686;28;20040;-70
2022/04/18 10:58:15;;;;;;;3.75;2.70;;;17.60;67.50;;;;;;5053313;28;20252;-69
2022/04/18 11:00:46;;;;;;;2.60;2.40;;;17.60;66.80;;;;;;5059773;28;20068;-71
2022/04/18 11:03:12;;;;;;;3.80;2.83;;;17.60;67.20;;;;;;5072852;28;20054;-70
2022/04/18 11:05:38;;;;;;;2.88;2.28;;;17.70;66.70;;;;;;5059308;28;20036;-71
2022/04/18 11:08:29;;;;;;;2.95;2.33;;;17.70;66.40;;;;;;5067494;28;20039;-72
2022/04/18 11:11:03;;;;;;;2.30;2.10;;;17.70;67.40;;;;;;5064797;28;20100;-71
2022/04/18 11:13:32;;;;;;;3.00;2.20;;;17.80;65.90;;;;;;5062848;28;20035;-70
2022/04/18 11:16:24;;;;;;;1.90;1.80;;;17.90;60.60;;;;;;5062682;28;20040;-70
2022/04/18 11:19:15;;;;;;;3.47;2.63;;;17.90;60.90;;;;;;5058567;28;20032;-70
2022/04/18 11:21:59;;;;;;;3.55;2.03;;;17.80;64.70;;;;;;5057237;28;20111;-70
2022/04/18 11:25:02;;;;;;;1.98;1.88;;;17.90;64.10;;;;;;5057795;28;20037;-70
2022/04/18 11:27:27;;;;;;;2.38;2.17;;;17.90;61.00;;;;;;5058030;28;20579;-69
2022/04/18 11:29:58;;;;;;;2.67;2.35;;;18.00;62.40;;;;;;5063222;28;20078;-70
2022/04/18 11:32:26;;;;;;;2.92;2.10;;;18.10;61.00;;;;;;5055788;28;20039;-70
2022/04/18 11:34:53;;;;;;;3.55;2.55;;;18.20;62.10;;;;;;5064576;28;20029;-71
2022/04/18 11:37:23;;;;;;;2.80;2.50;;;18.20;62.10;;;;;;5066939;28;20048;-70
2022/04/18 11:39:54;;;;;;;2.50;2.30;;;18.30;62.20;;;;;;5072497;28;20040;-71
2022/04/18 11:42:33;;;;;;;3.50;3.00;;;18.30;61.50;;;;;;5069189;28;20029;-70
2022/04/18 11:45:04;;;;;;;3.85;2.97;;;18.30;63.00;;;;;;5068190;28;20116;-69
2022/04/18 11:47:37;;;;;;;2.33;2.13;;;18.40;62.00;;;;;;5063070;28;20110;-70
2022/04/18 11:50:04;;;;;;;3.45;2.97;;;18.40;62.10;;;;;;5056903;28;20029;-71
2022/04/18 11:52:33;;;;;;;3.10;2.70;;;18.50;61.60;;;;;;5058039;28;20507;-70
2022/04/18 11:55:17;;;;;;;5.47;3.17;;;18.70;62.00;;;;;;5064181;28;20392;-69
2022/04/18 11:57:44;;;;;;;2.47;2.38;;;18.70;61.60;;;;;;5062206;28;20055;-70
2022/04/18 12:08:36;;;;;;;2.90;2.70;;;18.60;59.10;;;;;;5072735;28;20617;-71
2022/04/18 12:11:02;;;;;;;3.15;2.90;;;18.60;61.00;;;;;;5074045;28;20040;-71
2022/04/18 12:13:28;;;;;;;3.78;3.35;;;18.70;60.70;;;;;;5073430;28;20107;-71
2022/04/18 12:15:54;;;;;;;3.30;3.03;;;18.80;62.10;;;;;;5073025;28;20013;-70
2022/04/18 12:18:20;;;;;;;3.70;3.30;;;18.80;62.30;;;;;;5073292;28;20032;-71
2022/04/18 12:20:48;;;;;;;3.05;2.85;;;18.80;62.50;;;;;;5073666;28;20071;-71
2022/04/18 12:23:22;;;;;;;2.75;2.55;;;18.90;61.90;;;;;;5072644;28;20039;-70
2022/04/18 12:25:54;;;;;;;3.38;2.90;;;19.00;61.50;;;;;;5073754;28;20035;-71
2022/04/18 12:28:28;;;;;;;2.65;2.45;;;19.20;59.60;;;;;;5065710;28;20033;-72
2022/04/18 12:30:54;;;;;;;3.58;2.65;;;19.30;59.10;;;;;;5055754;28;20021;-70
2022/04/18 12:33:28;;;;;;;5.57;3.25;;;19.50;59.50;;;;;;5065513;28;20032;-70
2022/04/18 12:35:55;;;;;;;3.72;2.90;;;19.50;57.90;;;;;;5063940;28;20067;-69
2022/04/18 12:38:36;;;;;;;3.00;2.78;;;19.50;58.70;;;;;;5063553;28;20033;-69
2022/04/18 12:41:03;;;;;;;3.03;2.75;;;19.60;59.50;;;;;;5064439;28;20063;-70
2022/04/18 12:43:34;;;;;;;3.50;3.17;;;19.70;59.10;;;;;;5067145;28;20048;-70
2022/04/18 12:46:07;;;;;;;3.40;3.10;;;19.70;58.40;;;;;;5052011;28;20020;-71
2022/04/18 12:48:34;;;;;;;3.50;3.22;;;19.80;59.80;;;;;;5063278;28;20051;-71
2022/04/18 12:51:02;;;;;;;3.15;2.95;;;19.80;59.00;;;;;;5051542;28;20048;-71
2022/04/18 12:53:47;;;;;;;6.15;3.00;;;19.90;57.30;;;;;;5069505;28;20036;-70
2022/04/18 12:56:20;;;;;;;3.60;3.25;;;20.00;58.10;;;;;;5072786;28;20052;-71
2022/04/18 12:58:46;;;;;;;3.35;3.05;;;20.00;60.00;;;;;;5072414;28;20038;-71
2022/04/18 13:01:30;;;;;;;3.20;3.00;;;20.00;57.30;;;;;;5072734;28;20020;-71
2022/04/18 13:03:56;;;;;;;3.83;3.42;;;20.00;56.10;;;;;;5072881;28;20035;-70
2022/04/18 13:06:27;;;;;;;3.15;2.85;;;19.90;56.10;;;;;;5071707;28;20086;-71
2022/04/18 13:09:03;;;;;;;3.58;2.92;;;20.10;57.50;;;;;;5072305;28;20048;-72
2022/04/18 13:11:41;;;;;;;4.97;3.25;;;20.10;57.70;;;;;;5072584;28;20021;-72
2022/04/18 13:14:07;;;;;;;3.00;2.80;;;20.20;57.50;;;;;;5072028;28;20043;-70
2022/04/18 13:16:33;;;;;;;3.50;3.13;;;20.30;57.30;;;;;;5057366;28;20032;-70
2022/04/18 13:19:03;;;;;;;2.95;2.65;;;20.30;57.40;;;;;;5051186;28;20385;-71
2022/04/18 13:21:29;;;;;;;3.08;2.67;;;20.40;56.80;;;;;;5052866;28;20481;-71